Time;durP1;ratioP1;P1;durP2;ratioP2;P2;SDS_P1;SDS_P2;PMS_P1;PMS_P2;Temp;Humidity;BMP_temperature;BMP_pressure;BME280_temperature;BME280_humidity;BME280_pressure;Samples;Min_cycle;Max_cycle;Signal;HPM_P1;HPM_P2
2021/01/27 00:01:50;;;;;;;9.85;4.25;;;3.90;84.40;;;;;;5010731;28;20034;-56
2021/01/27 00:04:15;;;;;;;6.72;4.15;;;3.90;84.40;;;;;;5002121;28;20351;-57
2021/01/27 00:06:41;;;;;;;12.40;4.97;;;3.90;84.50;;;;;;5009432;28;20030;-57
2021/01/27 00:09:06;;;;;;;9.80;4.72;;;3.90;84.50;;;;;;5010114;28;20037;-58
2021/01/27 00:11:32;;;;;;;9.93;4.63;;;3.90;84.50;;;;;;5007518;28;20068;-57
2021/01/27 00:13:57;;;;;;;9.73;4.90;;;3.90;84.50;;;;;;5003705;28;20345;-56
2021/01/27 00:16:23;;;;;;;12.43;4.85;;;3.90;84.50;;;;;;5005710;28;20172;-58
2021/01/27 00:18:48;;;;;;;13.20;4.68;;;3.90;84.50;;;;;;5002495;28;20544;-56
2021/01/27 00:21:14;;;;;;;12.43;4.97;;;3.90;84.50;;;;;;5002094;28;20429;-57
2021/01/27 00:23:39;;;;;;;10.73;4.47;;;3.90;84.50;;;;;;4999995;28;20038;-55
2021/01/27 00:26:05;;;;;;;8.90;4.50;;;3.80;84.50;;;;;;4998962;28;20052;-57
2021/01/27 00:28:30;;;;;;;8.50;4.93;;;3.80;84.40;;;;;;5001990;28;20394;-57
2021/01/27 00:30:56;;;;;;;8.65;4.75;;;3.80;84.60;;;;;;4997426;28;20045;-55
2021/01/27 00:33:21;;;;;;;9.63;4.63;;;3.80;84.70;;;;;;5002650;28;20108;-56
2021/01/27 00:35:48;;;;;;;8.65;4.78;;;3.80;84.60;;;;;;5000357;28;20034;-57
2021/01/27 00:38:19;;;;;;;9.98;4.70;;;3.60;84.40;;;;;;4999438;28;20042;-56
2021/01/27 00:40:44;;;;;;;9.30;4.70;;;3.80;84.50;;;;;;5001984;28;20030;-58
2021/01/27 00:43:10;;;;;;;8.60;4.45;;;3.80;84.50;;;;;;5000530;28;20490;-58
2021/01/27 00:45:36;;;;;;;10.75;4.53;;;3.80;84.60;;;;;;5003452;28;20033;-55
2021/01/27 00:48:01;;;;;;;10.73;4.30;;;3.80;84.70;;;;;;5000542;28;20041;-58
2021/01/27 00:50:27;;;;;;;10.43;4.50;;;3.80;84.70;;;;;;4999136;28;20429;-56
2021/01/27 00:52:52;;;;;;;8.45;4.00;;;3.80;84.60;;;;;;5000570;28;20041;-57
2021/01/27 00:55:20;;;;;;;9.45;4.40;;;3.80;84.60;;;;;;4998807;28;20069;-56
2021/01/27 00:57:45;;;;;;;8.18;4.35;;;3.70;84.50;;;;;;4999256;28;20019;-55
2021/01/27 01:00:25;;;;;;;12.55;3.90;;;3.70;84.50;;;;;;5002612;28;20026;-56
2021/01/27 01:02:52;;;;;;;7.25;4.05;;;3.80;84.50;;;;;;5002999;28;20092;-56
2021/01/27 01:05:20;;;;;;;9.07;3.97;;;3.70;84.60;;;;;;4991683;28;20089;-57
2021/01/27 01:07:46;;;;;;;6.63;3.90;;;3.70;84.60;;;;;;5001370;28;20025;-55
2021/01/27 01:10:26;;;;;;;9.82;5.22;;;3.70;84.60;;;;;;5003472;28;20486;-57
2021/01/27 01:12:51;;;;;;;8.93;4.43;;;3.70;84.60;;;;;;5007140;28;20105;-57
2021/01/27 01:15:17;;;;;;;8.25;4.90;;;3.70;84.60;;;;;;5003771;28;20122;-56
2021/01/27 01:17:43;;;;;;;10.13;5.15;;;3.70;84.70;;;;;;4997958;28;20022;-57
2021/01/27 01:20:13;;;;;;;10.55;4.82;;;3.70;84.70;;;;;;5003137;28;20076;-56
2021/01/27 01:22:40;;;;;;;10.18;4.22;;;3.70;84.60;;;;;;4997749;28;20026;-58
2021/01/27 01:25:06;;;;;;;10.38;4.85;;;3.70;84.60;;;;;;5002384;28;20072;-58
2021/01/27 01:27:32;;;;;;;10.63;4.72;;;3.70;84.70;;;;;;4999531;28;20420;-56
2021/01/27 01:29:58;;;;;;;9.77;4.70;;;3.60;84.70;;;;;;4999449;28;20038;-57
2021/01/27 01:32:23;;;;;;;11.55;5.05;;;3.70;84.80;;;;;;5000064;28;20355;-55
2021/01/27 01:34:49;;;;;;;14.77;5.43;;;3.60;84.70;;;;;;5001644;28;20049;-57
2021/01/27 01:37:14;;;;;;;10.30;4.60;;;3.60;84.80;;;;;;5000885;28;20033;-58
2021/01/27 01:39:40;;;;;;;10.25;4.90;;;3.60;84.70;;;;;;5003147;28;20037;-58
2021/01/27 01:42:05;;;;;;;7.75;4.28;;;3.60;84.70;;;;;;4998298;28;20092;-58
2021/01/27 01:44:31;;;;;;;8.27;4.38;;;3.60;84.80;;;;;;4999473;28;20072;-56
2021/01/27 01:46:56;;;;;;;10.48;4.90;;;3.60;84.80;;;;;;5000426;28;20044;-57
2021/01/27 01:49:22;;;;;;;7.93;4.32;;;3.60;84.80;;;;;;5002038;28;20385;-58
2021/01/27 01:51:54;;;;;;;8.50;4.75;;;3.60;84.80;;;;;;4998786;28;20496;-58
2021/01/27 01:54:28;;;;;;;10.50;4.55;;;3.60;84.80;;;;;;5002896;28;20058;-55
2021/01/27 01:57:07;;;;;;;8.57;4.60;;;3.60;84.80;;;;;;5000703;28;20034;-57
2021/01/27 01:59:33;;;;;;;10.65;4.10;;;3.60;84.70;;;;;;5001677;28;20018;-56
2021/01/27 02:02:07;;;;;;;10.60;4.47;;;3.60;84.80;;;;;;5008541;28;20034;-57
2021/01/27 02:04:36;;;;;;;7.72;4.30;;;3.60;84.80;;;;;;5006012;28;20045;-57
2021/01/27 02:07:01;;;;;;;7.35;4.18;;;3.60;85.50;;;;;;5004342;28;20038;-57
2021/01/27 02:09:27;;;;;;;10.43;4.68;;;3.60;84.70;;;;;;4997791;28;20099;-58
2021/01/27 02:12:27;;;;;;;9.85;4.13;;;3.60;84.70;;;;;;5006112;28;20022;-57
2021/01/27 02:14:52;;;;;;;8.88;4.38;;;3.60;84.70;;;;;;5005581;28;20026;-58
2021/01/27 02:17:38;;;;;;;7.95;4.10;;;3.60;84.70;;;;;;5001936;28;20431;-57
2021/01/27 02:20:06;;;;;;;8.25;4.13;;;3.60;84.70;;;;;;5000074;28;20410;-56
2021/01/27 02:22:39;;;;;;;7.03;4.47;;;3.60;84.80;;;;;;5001517;28;20034;-56
2021/01/27 02:25:23;;;;;;;8.20;4.35;;;3.60;85.40;;;;;;5003054;28;20030;-57
2021/01/27 02:27:53;;;;;;;8.55;4.50;;;3.60;84.70;;;;;;5006300;28;20097;-57
2021/01/27 02:30:43;;;;;;;7.28;3.90;;;3.50;84.70;;;;;;5000604;28;20041;-56
2021/01/27 02:33:31;;;;;;;7.25;3.78;;;3.60;84.80;;;;;;4999376;28;20076;-57
2021/01/27 02:36:09;;;;;;;9.55;4.15;;;3.60;84.80;;;;;;4994312;28;20659;-56
2021/01/27 02:38:39;;;;;;;7.00;3.55;;;3.60;84.80;;;;;;5000364;28;20054;-56
2021/01/27 02:41:43;;;;;;;7.47;4.25;;;3.60;84.80;;;;;;5005401;28;20030;-58
2021/01/27 02:44:13;;;;;;;7.47;4.00;;;3.50;84.80;;;;;;4999434;28;20030;-56
2021/01/27 02:46:44;;;;;;;6.70;3.70;;;3.50;84.80;;;;;;4998563;28;20034;-56
2021/01/27 02:49:16;;;;;;;8.23;4.05;;;3.50;84.90;;;;;;5004123;28;20096;-56
2021/01/27 02:52:27;;;;;;;7.72;4.05;;;3.50;84.90;;;;;;5000568;28;20520;-56
2021/01/27 02:55:19;;;;;;;6.18;3.70;;;3.50;85.00;;;;;;5003149;28;20118;-56
2021/01/27 02:57:55;;;;;;;5.97;3.60;;;3.50;84.90;;;;;;5001132;28;20053;-55
2021/01/27 03:00:26;;;;;;;7.88;3.95;;;3.50;85.00;;;;;;4994761;28;20038;-58
2021/01/27 03:02:56;;;;;;;9.30;3.85;;;3.50;85.00;;;;;;4989962;28;20422;-57
2021/01/27 03:05:35;;;;;;;9.48;4.05;;;3.50;85.10;;;;;;5009678;28;20033;-57
2021/01/27 03:08:17;;;;;;;5.93;3.70;;;3.50;85.00;;;;;;5002580;28;20046;-56
2021/01/27 03:10:59;;;;;;;7.03;3.50;;;3.50;85.00;;;;;;5010367;28;20470;-57
2021/01/27 03:13:25;;;;;;;6.45;3.80;;;3.50;84.90;;;;;;5003614;28;20414;-56
2021/01/27 03:15:51;;;;;;;6.45;3.58;;;3.50;84.90;;;;;;5008890;28;20034;-56
2021/01/27 03:18:22;;;;;;;6.65;3.53;;;3.50;84.90;;;;;;5010370;28;20032;-56
2021/01/27 03:20:48;;;;;;;7.47;3.38;;;3.50;85.00;;;;;;5010228;28;20026;-57
2021/01/27 03:23:17;;;;;;;5.90;3.33;;;3.50;85.00;;;;;;5010081;28;20180;-56
2021/01/27 03:25:54;;;;;;;6.40;3.75;;;3.50;85.00;;;;;;5007761;28;20056;-56
2021/01/27 03:28:28;;;;;;;7.05;3.88;;;3.50;84.90;;;;;;5004385;28;20026;-57
2021/01/27 03:30:54;;;;;;;5.88;3.40;;;3.40;84.80;;;;;;5010257;28;20083;-57
2021/01/27 03:33:32;;;;;;;7.28;3.53;;;3.40;85.00;;;;;;5005119;28;20478;-56
2021/01/27 03:36:02;;;;;;;8.25;3.30;;;3.40;85.00;;;;;;5009635;28;20662;-57
2021/01/27 03:38:43;;;;;;;5.68;3.63;;;3.40;85.00;;;;;;5008314;28;20314;-57
2021/01/27 03:41:17;;;;;;;7.22;3.75;;;3.40;85.00;;;;;;5005709;28;20109;-57
2021/01/27 03:44:10;;;;;;;6.50;2.90;;;3.40;85.10;;;;;;5008372;28;20026;-58
2021/01/27 03:46:59;;;;;;;5.80;3.42;;;3.40;85.10;;;;;;4994411;28;20060;-56
2021/01/27 03:49:28;;;;;;;5.82;3.72;;;3.40;85.10;;;;;;4989724;28;20483;-58
2021/01/27 03:52:02;;;;;;;7.35;3.42;;;3.40;85.10;;;;;;5000070;28;20018;-57
2021/01/27 03:54:29;;;;;;;5.13;3.10;;;3.30;85.20;;;;;;4987196;28;20050;-57
2021/01/27 03:57:19;;;;;;;6.93;4.05;;;3.40;85.10;;;;;;5002989;28;20034;-57
2021/01/27 03:59:49;;;;;;;6.95;3.20;;;3.40;85.10;;;;;;5001310;28;20438;-56
2021/01/27 04:02:17;;;;;;;8.85;3.60;;;3.40;85.10;;;;;;5001051;28;20018;-57
2021/01/27 04:04:42;;;;;;;5.82;3.60;;;3.40;85.10;;;;;;5007750;28;20037;-58
2021/01/27 04:07:08;;;;;;;5.60;3.13;;;3.40;85.10;;;;;;5008100;28;20037;-56
2021/01/27 04:09:33;;;;;;;8.13;3.75;;;3.40;85.00;;;;;;5007301;28;20034;-57
2021/01/27 04:11:59;;;;;;;4.78;3.17;;;3.40;85.00;;;;;;4996138;28;20026;-56
2021/01/27 04:14:24;;;;;;;6.13;3.08;;;3.40;85.00;;;;;;5009447;28;20378;-56
2021/01/27 04:16:50;;;;;;;7.80;2.85;;;3.30;85.00;;;;;;5007890;28;20394;-56
2021/01/27 04:19:15;;;;;;;7.60;3.33;;;3.30;85.00;;;;;;4997594;28;20033;-56
2021/01/27 04:21:41;;;;;;;4.43;2.92;;;3.30;85.00;;;;;;5008774;28;20026;-57
2021/01/27 04:24:06;;;;;;;5.03;2.92;;;3.30;85.00;;;;;;5009582;28;20053;-58
2021/01/27 04:26:32;;;;;;;7.07;3.03;;;3.30;85.10;;;;;;5008596;28;20100;-56
2021/01/27 04:28:57;;;;;;;3.85;2.75;;;3.30;85.00;;;;;;5004584;28;20108;-57
2021/01/27 04:31:23;;;;;;;5.30;2.92;;;3.30;85.10;;;;;;5007562;28;20033;-57
2021/01/27 04:33:48;;;;;;;8.35;3.28;;;3.30;85.00;;;;;;5008838;28;20084;-57
2021/01/27 04:36:14;;;;;;;4.88;3.00;;;3.40;85.10;;;;;;5005340;28;20054;-58
2021/01/27 04:38:40;;;;;;;5.05;3.03;;;3.30;85.00;;;;;;4999712;28;20068;-55
2021/01/27 04:41:06;;;;;;;5.40;3.13;;;3.30;84.90;;;;;;5010148;28;20026;-57
2021/01/27 04:43:39;;;;;;;4.47;2.90;;;3.30;84.90;;;;;;5007521;28;20022;-57
2021/01/27 04:46:13;;;;;;;5.63;2.65;;;3.30;84.90;;;;;;5003883;28;20030;-56
2021/01/27 04:49:06;;;;;;;5.55;3.15;;;3.30;84.80;;;;;;5009779;28;20025;-58
2021/01/27 04:51:35;;;;;;;6.05;2.80;;;3.30;84.90;;;;;;5004883;28;20036;-57
2021/01/27 04:54:23;;;;;;;6.18;2.80;;;3.30;84.80;;;;;;5009748;28;20036;-56
2021/01/27 04:57:27;;;;;;;5.00;2.97;;;3.30;84.80;;;;;;5005044;28;20045;-58
2021/01/27 05:00:14;;;;;;;5.40;2.63;;;3.30;84.90;;;;;;5008222;28;20058;-57
2021/01/27 05:03:11;;;;;;;4.35;2.70;;;3.30;84.90;;;;;;5005512;28;20022;-58
2021/01/27 05:05:38;;;;;;;4.72;2.60;;;3.30;84.90;;;;;;4999519;28;20064;-58
2021/01/27 05:08:15;;;;;;;5.05;2.92;;;3.30;84.80;;;;;;5001803;28;20034;-56
2021/01/27 05:10:58;;;;;;;5.50;2.70;;;3.30;84.80;;;;;;5006362;28;20072;-59
2021/01/27 05:13:34;;;;;;;6.35;3.75;;;3.20;84.80;;;;;;4990308;28;20029;-58
2021/01/27 05:16:01;;;;;;;4.63;2.88;;;3.20;84.80;;;;;;5005980;28;20029;-58
2021/01/27 05:18:26;;;;;;;5.97;2.90;;;3.20;84.80;;;;;;5008010;28;20428;-56
2021/01/27 05:20:52;;;;;;;6.18;3.10;;;3.20;84.90;;;;;;5010005;28;20113;-56
2021/01/27 05:23:18;;;;;;;4.40;2.55;;;3.20;85.00;;;;;;5008877;28;20390;-57
2021/01/27 05:26:02;;;;;;;5.55;2.60;;;3.20;85.00;;;;;;5008186;28;20486;-56
2021/01/27 05:28:31;;;;;;;5.50;2.88;;;3.20;85.00;;;;;;5004085;28;20389;-58
2021/01/27 05:30:56;;;;;;;4.55;2.70;;;3.20;85.00;;;;;;4990604;28;20029;-57
2021/01/27 05:33:42;;;;;;;5.03;2.40;;;3.20;85.00;;;;;;5009893;28;20040;-58
2021/01/27 05:36:08;;;;;;;;;;;3.20;85.00;;;;;;5011293;28;20022;-58
2021/01/27 05:38:34;;;;;;;4.88;2.70;;;3.20;85.00;;;;;;5007784;28;20008;-56
2021/01/27 05:41:16;;;;;;;5.55;2.67;;;3.20;85.00;;;;;;5013406;28;20471;-58
2021/01/27 05:43:41;;;;;;;4.50;2.65;;;3.20;84.90;;;;;;5010045;28;20030;-56
2021/01/27 05:46:27;;;;;;;4.55;2.50;;;3.20;85.00;;;;;;4996431;28;20029;-58
2021/01/27 05:48:52;;;;;;;4.55;2.50;;;3.20;85.00;;;;;;5011039;28;20473;-56
2021/01/27 05:51:28;;;;;;;4.05;2.63;;;3.20;85.00;;;;;;5001058;28;20046;-57
2021/01/27 05:53:53;;;;;;;;;;;3.20;85.00;;;;;;4994183;28;20053;-57
2021/01/27 05:56:28;;;;;;;4.63;3.05;;;3.20;85.00;;;;;;4993740;28;19914;-58
2021/01/27 05:58:54;;;;;;;3.50;2.58;;;3.20;85.00;;;;;;4976812;28;20050;-57
2021/01/27 06:01:21;;;;;;;4.68;2.33;;;3.20;85.10;;;;;;4994370;28;20054;-56
2021/01/27 06:04:05;;;;;;;4.40;2.08;;;3.20;85.10;;;;;;5005720;28;20037;-56
2021/01/27 06:06:32;;;;;;;4.20;2.35;;;3.20;85.10;;;;;;5011650;28;20105;-59
2021/01/27 06:08:59;;;;;;;4.97;2.30;;;3.20;85.20;;;;;;5011207;28;20397;-58
2021/01/27 06:11:24;;;;;;;3.60;2.45;;;3.20;85.10;;;;;;5009926;28;20025;-56
2021/01/27 06:13:51;;;;;;;3.75;2.30;;;3.20;85.10;;;;;;5010502;28;20440;-58
2021/01/27 06:16:22;;;;;;;3.42;2.15;;;3.20;85.10;;;;;;5010493;28;20073;-56
2021/01/27 06:18:48;;;;;;;6.03;2.40;;;3.20;85.10;;;;;;5010641;28;20034;-56
2021/01/27 06:21:39;;;;;;;6.20;2.25;;;3.20;85.10;;;;;;5009311;28;20025;-55
2021/01/27 06:24:08;;;;;;;4.18;2.30;;;3.20;85.10;;;;;;5011110;28;20033;-58
2021/01/27 06:27:00;;;;;;;4.20;2.33;;;3.20;85.10;;;;;;5007189;28;20041;-57
2021/01/27 06:29:55;;;;;;;5.53;2.33;;;3.20;85.10;;;;;;5002752;28;20334;-58
2021/01/27 06:33:02;;;;;;;4.07;2.38;;;3.20;85.10;;;;;;5004217;28;20057;-57
2021/01/27 06:35:50;;;;;;;8.43;2.42;;;3.20;85.00;;;;;;5009523;28;20053;-57
2021/01/27 06:38:24;;;;;;;4.72;2.67;;;3.20;85.00;;;;;;5009360;28;20401;-57
2021/01/27 06:41:14;;;;;;;4.53;2.53;;;3.20;85.00;;;;;;5006442;28;20014;-59
2021/01/27 06:44:11;;;;;;;3.88;2.45;;;3.20;85.00;;;;;;5009360;28;20045;-56
2021/01/27 06:46:40;;;;;;;;;;;3.20;85.00;;;;;;5003417;28;20080;-56
2021/01/27 06:49:33;;;;;;;4.65;2.30;;;3.20;85.00;;;;;;4987564;28;19914;-56
2021/01/27 06:52:27;;;;;;;3.85;2.50;;;3.20;85.00;;;;;;5005529;28;20394;-56
2021/01/27 06:54:58;;;;;;;4.07;2.38;;;3.20;85.00;;;;;;5002230;28;20045;-57
2021/01/27 06:57:24;;;;;;;2.70;2.00;;;3.20;84.90;;;;;;5001351;28;20033;-57
2021/01/27 07:00:02;;;;;;;5.85;2.72;;;3.20;85.00;;;;;;5005714;28;20069;-56
2021/01/27 07:02:53;;;;;;;5.43;2.38;;;3.20;84.90;;;;;;5020927;28;20026;-56
2021/01/27 07:05:39;;;;;;;3.20;2.10;;;3.20;84.80;;;;;;5003049;28;20018;-59
2021/01/27 07:08:12;;;;;;;4.22;2.10;;;3.20;84.60;;;;;;5002023;28;20049;-57
2021/01/27 07:10:55;;;;;;;2.72;2.00;;;3.20;84.50;;;;;;5002183;28;20042;-58
2021/01/27 07:13:45;;;;;;;3.80;2.50;;;3.20;84.50;;;;;;5015980;28;20022;-57
2021/01/27 07:16:22;;;;;;;5.53;2.35;;;3.20;84.50;;;;;;4999642;28;20055;-57
2021/01/27 07:19:11;;;;;;;5.25;2.17;;;3.10;84.30;;;;;;4994944;28;20019;-58
2021/01/27 07:21:45;;;;;;;4.07;2.53;;;3.20;84.40;;;;;;5005173;28;20143;-56
2021/01/27 07:24:17;;;;;;;4.70;2.65;;;3.20;84.40;;;;;;5003698;28;20037;-57
2021/01/27 07:26:54;;;;;;;4.00;2.38;;;3.20;84.30;;;;;;5004341;28;20021;-57
2021/01/27 07:29:32;;;;;;;3.72;2.15;;;3.20;84.10;;;;;;5004859;28;20478;-57
2021/01/27 07:31:58;;;;;;;3.45;2.45;;;3.20;84.00;;;;;;4994834;28;20113;-57
2021/01/27 07:34:34;;;;;;;3.85;2.25;;;3.20;84.00;;;;;;4996916;28;20134;-58
2021/01/27 07:36:59;;;;;;;4.78;2.33;;;3.20;84.00;;;;;;5000042;28;20022;-56
2021/01/27 07:39:25;;;;;;;5.38;2.47;;;3.20;84.00;;;;;;5006396;28;20076;-57
2021/01/27 07:42:15;;;;;;;6.05;2.60;;;3.20;84.00;;;;;;5004103;28;20471;-57
2021/01/27 07:44:43;;;;;;;3.50;2.20;;;3.20;84.10;;;;;;4996090;28;20041;-58
2021/01/27 07:47:28;;;;;;;5.40;2.35;;;3.20;84.10;;;;;;4996341;28;20025;-56
2021/01/27 07:49:57;;;;;;;3.88;2.05;;;3.30;84.20;;;;;;4994854;28;20026;-56
2021/01/27 07:52:31;;;;;;;8.85;2.50;;;3.30;84.20;;;;;;5006340;28;20080;-56
2021/01/27 07:55:16;;;;;;;7.55;2.70;;;3.30;84.20;;;;;;5002049;28;20029;-57
2021/01/27 07:57:55;;;;;;;6.63;2.40;;;3.30;84.10;;;;;;5001123;28;20026;-57
2021/01/27 08:00:42;;;;;;;12.07;2.38;;;3.30;84.00;;;;;;5002951;28;20026;-57
2021/01/27 08:03:12;;;;;;;12.23;3.20;;;3.30;84.80;;;;;;4997482;28;20030;-57
2021/01/27 08:05:41;;;;;;;9.10;2.42;;;3.30;84.10;;;;;;5007958;28;20470;-58
2021/01/27 08:08:11;;;;;;;17.42;3.15;;;3.30;84.20;;;;;;4995197;28;20052;-57
2021/01/27 08:10:37;;;;;;;14.73;2.97;;;3.30;84.30;;;;;;5000614;28;20022;-57
2021/01/27 08:13:03;;;;;;;12.32;3.00;;;3.30;84.40;;;;;;4996683;28;20096;-59
2021/01/27 08:15:32;;;;;;;9.52;2.75;;;3.30;84.30;;;;;;4991314;28;20084;-58
2021/01/27 08:18:17;;;;;;;9.38;2.72;;;3.30;84.30;;;;;;5001518;28;20018;-59
2021/01/27 08:20:44;;;;;;;10.88;3.25;;;3.30;84.20;;;;;;5006816;28;20037;-57
2021/01/27 08:23:22;;;;;;;7.82;2.70;;;3.40;84.30;;;;;;5005386;28;20037;-58
2021/01/27 08:25:58;;;;;;;8.80;2.58;;;3.40;84.30;;;;;;4996322;28;20030;-55
2021/01/27 08:28:33;;;;;;;;;;;3.30;84.20;;;;;;5002210;28;20414;-55
2021/01/27 08:31:07;;;;;;;8.30;3.00;;;3.40;84.30;;;;;;4997328;28;19921;-56
2021/01/27 08:33:54;;;;;;;21.52;3.67;;;3.40;84.30;;;;;;4998675;28;20072;-58
2021/01/27 08:36:24;;;;;;;15.80;3.65;;;3.40;84.60;;;;;;4997891;28;20030;-56
2021/01/27 08:38:55;;;;;;;15.00;3.40;;;3.40;84.30;;;;;;4986976;28;20050;-57
2021/01/27 08:41:52;;;;;;;14.98;3.30;;;3.60;84.50;;;;;;4996493;28;20397;-57
2021/01/27 08:44:21;;;;;;;23.10;4.32;;;3.40;84.40;;;;;;5002453;28;20025;-56
2021/01/27 08:46:52;;;;;;;12.10;3.22;;;3.30;84.50;;;;;;4997269;28;20072;-58
2021/01/27 08:49:36;;;;;;;12.95;3.78;;;3.30;84.50;;;;;;5003346;28;20026;-57
2021/01/27 08:52:08;;;;;;;16.83;3.08;;;3.30;84.60;;;;;;4997256;28;20478;-56
2021/01/27 08:54:37;;;;;;;11.35;3.42;;;3.30;84.60;;;;;;4994569;28;20052;-57
2021/01/27 08:57:22;;;;;;;9.43;2.75;;;3.30;84.60;;;;;;5000032;28;20022;-56
2021/01/27 09:00:11;;;;;;;9.68;3.50;;;3.40;85.40;;;;;;4993879;28;20022;-56
2021/01/27 09:02:37;;;;;;;15.02;2.90;;;3.30;84.70;;;;;;5004365;28;20061;-59
2021/01/27 09:05:19;;;;;;;12.82;3.55;;;3.30;84.80;;;;;;4993868;28;20108;-57
2021/01/27 09:07:48;;;;;;;8.90;2.95;;;3.30;84.80;;;;;;4998906;28;20032;-58
2021/01/27 09:10:13;;;;;;;11.70;2.58;;;3.40;84.80;;;;;;5010125;28;20022;-56
2021/01/27 09:12:39;;;;;;;10.57;2.80;;;3.40;84.80;;;;;;5001884;28;20037;-57
2021/01/27 09:15:05;;;;;;;8.13;3.08;;;3.40;84.90;;;;;;5002834;28;20038;-58
2021/01/27 09:17:30;;;;;;;11.20;2.83;;;3.40;84.80;;;;;;4986374;28;20061;-56
2021/01/27 09:19:56;;;;;;;9.70;3.10;;;3.40;84.90;;;;;;4984088;28;20057;-57
2021/01/27 09:22:24;;;;;;;8.13;2.85;;;3.40;84.90;;;;;;5001880;28;20073;-56
2021/01/27 09:24:51;;;;;;;13.20;2.90;;;3.40;85.00;;;;;;5000388;28;20037;-56
2021/01/27 09:27:21;;;;;;;7.85;2.60;;;3.40;85.00;;;;;;5000786;28;20088;-57
2021/01/27 09:29:56;;;;;;;12.23;3.17;;;3.40;85.00;;;;;;4998825;28;20109;-56
2021/01/27 09:32:22;;;;;;;;;;;3.40;85.10;;;;;;4989983;28;20545;-57
2021/01/27 09:34:49;;;;;;;;;;;3.40;85.10;;;;;;5001933;28;19948;-55
2021/01/27 09:37:20;;;;;;;7.97;2.90;;;3.40;85.00;;;;;;4993801;28;19918;-56
2021/01/27 09:39:50;;;;;;;10.98;2.65;;;3.40;85.00;;;;;;5006481;28;20023;-58
2021/01/27 09:42:25;;;;;;;11.15;2.78;;;3.40;85.00;;;;;;4985065;28;20037;-58
2021/01/27 09:45:02;;;;;;;12.80;3.58;;;3.40;85.10;;;;;;4987069;28;20034;-58
2021/01/27 09:47:28;;;;;;;5.45;2.83;;;3.40;85.20;;;;;;4994404;28;20068;-56
2021/01/27 09:49:57;;;;;;;4.72;2.55;;;3.40;85.20;;;;;;5001218;28;20037;-57
2021/01/27 09:52:23;;;;;;;12.40;2.70;;;3.40;85.20;;;;;;5004059;28;20118;-56
2021/01/27 09:54:54;;;;;;;10.63;2.72;;;3.40;85.30;;;;;;4988828;28;20141;-56
2021/01/27 09:57:21;;;;;;;5.10;2.45;;;3.40;85.30;;;;;;4999815;28;20549;-57
2021/01/27 09:59:53;;;;;;;11.63;3.53;;;3.40;85.40;;;;;;4999939;28;20031;-58
2021/01/27 10:02:27;;;;;;;15.43;2.75;;;3.40;85.40;;;;;;4987526;28;20046;-57
2021/01/27 10:04:53;;;;;;;14.93;3.28;;;3.40;85.40;;;;;;5004284;28;20018;-58
2021/01/27 10:07:30;;;;;;;12.48;3.55;;;3.50;85.50;;;;;;5005732;28;20620;-56
2021/01/27 10:10:08;;;;;;;8.15;3.00;;;3.40;85.50;;;;;;4993121;28;20028;-56
2021/01/27 10:12:33;;;;;;;10.77;2.67;;;3.40;85.60;;;;;;4998416;28;20018;-57
2021/01/27 10:15:20;;;;;;;9.23;2.88;;;3.40;85.80;;;;;;5003366;28;20545;-56
2021/01/27 10:17:45;;;;;;;12.10;2.80;;;3.40;85.80;;;;;;5001941;28;20088;-57
2021/01/27 10:20:26;;;;;;;16.90;3.25;;;3.50;85.90;;;;;;4989793;28;20034;-57
2021/01/27 10:22:59;;;;;;;10.95;3.40;;;3.50;86.00;;;;;;4997200;28;20498;-56
2021/01/27 10:25:38;;;;;;;10.70;3.22;;;3.50;86.00;;;;;;5002715;28;21543;-57
2021/01/27 10:28:05;;;;;;;15.00;3.50;;;3.50;86.10;;;;;;5000732;28;20034;-57
2021/01/27 10:30:32;;;;;;;11.63;3.33;;;3.40;86.00;;;;;;4998933;28;20117;-57
2021/01/27 10:32:57;;;;;;;17.65;3.60;;;3.50;86.10;;;;;;5008184;28;20018;-57
2021/01/27 10:35:23;;;;;;;16.08;3.30;;;3.50;86.10;;;;;;5005446;28;20049;-56
2021/01/27 10:38:01;;;;;;;21.13;3.63;;;3.50;86.20;;;;;;5006364;28;20037;-57
2021/01/27 10:40:33;;;;;;;21.10;3.88;;;3.50;86.20;;;;;;5013245;28;20054;-58
2021/01/27 10:43:03;;;;;;;20.65;3.05;;;3.50;86.20;;;;;;5001150;28;20047;-56
2021/01/27 10:45:33;;;;;;;16.05;3.85;;;3.50;86.20;;;;;;5004217;28;20428;-57
2021/01/27 10:47:58;;;;;;;20.02;3.25;;;3.50;86.20;;;;;;5003168;28;20105;-57
2021/01/27 10:50:24;;;;;;;24.05;4.05;;;3.50;86.20;;;;;;4991804;28;22110;-56
2021/01/27 10:52:50;;;;;;;19.92;3.78;;;3.30;86.10;;;;;;4995740;28;20300;-60
2021/01/27 10:55:16;;;;;;;22.92;3.58;;;3.60;86.20;;;;;;4999565;28;20229;-57
2021/01/27 10:57:41;;;;;;;19.23;3.67;;;3.60;86.10;;;;;;4998086;28;20493;-58
2021/01/27 11:00:09;;;;;;;19.30;3.63;;;3.60;86.80;;;;;;5005486;28;20034;-56
2021/01/27 11:02:34;;;;;;;16.35;3.58;;;3.60;86.10;;;;;;5003946;28;20029;-57
2021/01/27 11:05:00;;;;;;;16.63;4.13;;;3.60;86.10;;;;;;5006078;28;20390;-56
2021/01/27 11:07:25;;;;;;;14.35;3.25;;;3.60;86.10;;;;;;4998952;28;20044;-57
2021/01/27 11:09:51;;;;;;;23.40;4.22;;;3.60;86.10;;;;;;4995311;28;20071;-58
2021/01/27 11:12:16;;;;;;;19.50;3.47;;;3.70;86.10;;;;;;4996738;28;20481;-57
2021/01/27 11:14:42;;;;;;;28.30;3.83;;;3.60;86.00;;;;;;4995035;28;20108;-57
2021/01/27 11:17:07;;;;;;;19.15;3.53;;;3.60;86.10;;;;;;4999427;28;20038;-57
2021/01/27 11:19:33;;;;;;;23.05;3.75;;;3.70;86.20;;;;;;4998590;28;22557;-57
2021/01/27 11:21:58;;;;;;;22.55;3.72;;;3.60;86.10;;;;;;5005620;28;20109;-57
2021/01/27 11:24:24;;;;;;;23.63;4.15;;;3.70;86.30;;;;;;5001394;28;20421;-57
2021/01/27 11:26:49;;;;;;;35.33;4.70;;;3.70;86.30;;;;;;4999807;28;20034;-57
2021/01/27 11:29:15;;;;;;;21.45;4.13;;;3.70;86.40;;;;;;4997883;28;20037;-57
2021/01/27 11:31:40;;;;;;;34.38;4.45;;;3.70;86.50;;;;;;5003810;28;20048;-57
2021/01/27 11:34:06;;;;;;;25.63;3.97;;;3.70;86.50;;;;;;5000433;28;20038;-57
2021/01/27 11:36:31;;;;;;;34.85;4.55;;;3.70;86.60;;;;;;5002662;28;20556;-57
2021/01/27 11:38:57;;;;;;;29.70;3.97;;;3.70;86.60;;;;;;5005112;28;20042;-56
2021/01/27 11:41:25;;;;;;;31.08;4.50;;;3.70;86.60;;;;;;4999667;28;20483;-57
2021/01/27 11:43:51;;;;;;;24.40;4.07;;;3.70;86.70;;;;;;5000465;28;20459;-57
2021/01/27 11:46:18;;;;;;;26.00;4.07;;;3.70;86.70;;;;;;4999043;28;20528;-57
2021/01/27 11:48:43;;;;;;;27.98;4.78;;;3.70;86.70;;;;;;5001857;28;20385;-57
2021/01/27 11:51:09;;;;;;;42.55;5.88;;;3.70;86.70;;;;;;5000616;28;20030;-57
2021/01/27 11:53:35;;;;;;;35.15;5.70;;;3.70;86.80;;;;;;5000512;28;20040;-56
2021/01/27 11:56:01;;;;;;;17.55;4.07;;;3.70;86.80;;;;;;4994324;28;20030;-57
2021/01/27 11:58:28;;;;;;;24.38;3.88;;;3.80;86.80;;;;;;5000243;28;20097;-56
2021/01/27 12:00:54;;;;;;;23.35;4.18;;;3.70;86.80;;;;;;5002209;28;20025;-57
2021/01/27 12:03:19;;;;;;;27.80;4.68;;;3.80;86.90;;;;;;4998139;28;20034;-57
2021/01/27 12:05:45;;;;;;;24.17;3.63;;;3.80;86.80;;;;;;5003506;28;20493;-56
2021/01/27 12:08:10;;;;;;;17.58;4.20;;;3.80;86.80;;;;;;5000234;28;20117;-56
2021/01/27 12:10:37;;;;;;;24.10;4.05;;;3.80;86.90;;;;;;4998951;28;20184;-56
2021/01/27 12:13:03;;;;;;;21.65;4.13;;;3.80;86.80;;;;;;4998274;28;20033;-57
2021/01/27 12:15:29;;;;;;;22.05;4.07;;;3.80;86.80;;;;;;4993671;28;20029;-57
2021/01/27 12:17:54;;;;;;;27.92;5.45;;;3.80;86.90;;;;;;4993754;28;20549;-56
2021/01/27 12:20:20;;;;;;;20.77;3.67;;;3.80;86.80;;;;;;4996884;28;20044;-56
2021/01/27 12:22:45;;;;;;;24.38;4.63;;;3.80;86.80;;;;;;5004566;28;20037;-56
2021/01/27 12:25:11;;;;;;;20.48;3.55;;;3.80;86.80;;;;;;5002180;28;20034;-56
2021/01/27 12:27:37;;;;;;;23.85;3.80;;;3.80;86.80;;;;;;4991774;28;20042;-56
2021/01/27 12:30:07;;;;;;;17.42;4.10;;;3.80;86.90;;;;;;5001093;28;20076;-57
2021/01/27 12:32:32;;;;;;;20.58;3.95;;;3.80;86.80;;;;;;4982925;28;20030;-57
2021/01/27 12:34:58;;;;;;;22.55;3.90;;;3.80;86.80;;;;;;4986284;28;20116;-56
2021/01/27 12:37:23;;;;;;;20.38;3.53;;;3.80;86.90;;;;;;4998196;28;20072;-55
2021/01/27 12:39:49;;;;;;;20.00;3.88;;;3.80;87.00;;;;;;4999004;28;20474;-56
2021/01/27 12:42:14;;;;;;;13.57;3.65;;;3.80;86.90;;;;;;5005398;28;20033;-57
2021/01/27 12:44:41;;;;;;;21.05;3.70;;;3.80;86.90;;;;;;5003874;28;20052;-56
2021/01/27 12:47:06;;;;;;;18.40;3.75;;;3.90;87.00;;;;;;5003842;28;20030;-57
2021/01/27 12:49:32;;;;;;;32.80;4.30;;;3.90;87.00;;;;;;4996568;28;20026;-56
2021/01/27 12:51:58;;;;;;;31.00;4.30;;;3.80;87.30;;;;;;4997483;28;20893;-57
2021/01/27 12:54:23;;;;;;;17.05;3.63;;;3.80;87.20;;;;;;4998157;28;20030;-57
2021/01/27 12:56:48;;;;;;;18.92;3.75;;;3.90;87.40;;;;;;5000178;28;20042;-56
2021/01/27 12:59:14;;;;;;;25.77;4.30;;;3.90;87.40;;;;;;5003252;28;20386;-56
2021/01/27 13:01:40;;;;;;;17.38;3.67;;;3.90;87.40;;;;;;4999573;28;20544;-56
2021/01/27 13:04:05;;;;;;;24.05;4.15;;;3.90;87.30;;;;;;4979087;28;20576;-57
2021/01/27 13:06:31;;;;;;;15.90;3.85;;;3.90;87.20;;;;;;4988781;28;20878;-56
2021/01/27 13:08:56;;;;;;;24.23;5.50;;;3.90;87.20;;;;;;4984465;28;20168;-57
2021/01/27 13:11:22;;;;;;;18.95;4.20;;;3.90;87.20;;;;;;4999010;28;20073;-57
2021/01/27 13:13:47;;;;;;;38.58;5.72;;;3.90;87.30;;;;;;5000323;28;20023;-56
2021/01/27 13:16:13;;;;;;;25.23;4.75;;;3.90;87.30;;;;;;5000351;28;20613;-56
2021/01/27 13:18:38;;;;;;;25.45;4.45;;;3.90;87.40;;;;;;4997360;28;20042;-56